world map with YBDV marked

YBDV - Airport

This information may not be accurate or current and is not valid for navigation or flight planning. No warranty of fitness for any purpose is made or implied.

flag of Queenslandflag of Australia

Donate via PayPal

Additional information is available on the NEW Great Circle Mapper

Location
City:  Birdsville, Queensland, Australia
ICAO / IATA:YBDV / BVI

Details
Type:Airport (Aerodrome, Airfield)
Latitude:25°53'51"S (-25.897499)
Longitude:139°20'51"E (139.347500)
Datum:WGS 1984
Elevation:159 ft (48 m)
Runways:2
Longest:5682 × 98 ft (1732 × 30 m)

Time
Timezone:UTC+10 (DST+12)
Local Time:

Weather
METAR:YBDV  041400Z AUTO 03015KT 020V110 //// // ////// 33/18 Q1004

Related Locations
Nearby:
Farthest:FLW: 11349 mi / 18264 km
Flores Island [Santa Cruz], 20, PT

Find:

   beyond  
but within

Other Information
Maps:
Sources:

  


 


Great Circle Mapper   Great Circle Mapper
Great Circle Mapper FAQ   Great Circle Mapper FAQ
  Karl's Home Page
KLSē   KLSē Home
   GC on Facebook
Airlines of the World   Airlines of the World
Donate via PayPal


Copyright © 2004-2019, Karl L. Swartz. All rights reserved.
All trademarks mentioned herein belong to their respective owners.

Please see credits for attribution and copyright information.

Karl Swartz <karl@kls2.com>
  Powered by FreeBSD
Valid HTML 4.01!
Labeled with ICRA
hCard Microformat
Geo Microformat